Gillam Airport
CYGX : now visible

Airfield :











YOU CAN JOIN US ON...

 
LOGIN :

Register | Disclaimer

   EN    FR    IT 

 









Legend :    VFR   Marginal VFR   IFR   Intensive IFR   Very Intensive IFR
Visi :
Ceiling :
>= 8 km
>= 3000ft
5 to 8 km
1000 to 3000 ft
1500m to 5 km
500 to 1000 ft
800 to 1500m
200 to 500 ft
< 800m
< 200 ft
Symbols :   Thunderstorms  Fog  Heavy snow  Heavy precipitations  Wind > 20 kt






- Airport Elevation : 476 ft
- IATA code : YGX


CYGX - Gillam

CURRENT METAR :
  • 301000Z 23007KT 15SM FEW240 M35/M38 A2994 RMK CI2 SLP165

EXPIRED METARs :
  • 300900Z 22006KT 15SM SCT250 M35/M38 A2995 RMK CI3 SLP171
  • 300800Z 24006KT 15SM SCT260 M35/M38 A2997 RMK CI3 SLP176

TAF TAF CYGX
Valid from the 30 at 07:00 until the 30 at 19:00 UTC


300643Z 3007/3019 23006KT P6SM SKC
FM301600 26012KT P6SM FEW040 RMK NXT FCST BY 301300Z
CZWG FIR / North America



MET'MAP, your aeronautical weather chart ! - Copyright ORBIFLY December 2007 - Disclaimer

ORBIFLY MET'MAP TEAM :

Programming & Development : Alexandra Zaïnal
Original concept : Baudouin d'Aumeries
Technical & hardware support : Manuel Goepfert
Assistance : Marc-Olivier Méhu




SOURCES & CREDITS :

   NOAA       Earth
Advisory